Time;durP1;ratioP1;P1;durP2;ratioP2;P2;SDS_P1;SDS_P2;PMS_P1;PMS_P2;Temp;Humidity;BMP_temperature;BMP_pressure;BME280_temperature;BME280_humidity;BME280_pressure;Samples;Min_cycle;Max_cycle;Signal;HPM_P1;HPM_P2
2021/12/04 00:01:09;;;;;;;0.95;0.65;;;10.80;99.90;;;;;;4917826;28;44329;-83
2021/12/04 00:11:36;;;;;;;0.25;0.25;;;10.70;99.90;;;;;;4932639;28;20604;-84
2021/12/04 00:15:34;;;;;;;;;;;;;;;;;;;;;
2021/12/04 00:35:31;;;;;;;;;;;;;;;;;;;;;
2021/12/04 00:59:16;;;;;;;0.75;0.43;;;11.30;99.90;;;;;;4937921;28;20056;-83
2021/12/04 01:02:09;;;;;;;0.40;0.22;;;11.20;99.90;;;;;;4973246;28;20109;-83
2021/12/04 01:05:14;;;;;;;0.10;0.10;;;11.20;99.90;;;;;;4960557;28;20039;-83
2021/12/04 01:18:48;;;;;;;;;;;;;;;;;;;;;
2021/12/04 01:21:55;;;;;;;;;;;;;;;;;;;;;
2021/12/04 01:31:33;;;;;;;0.30;0.30;;;11.60;99.90;;;;;;4916451;29;20044;-80
2021/12/04 01:34:57;;;;;;;;;;;;;;;;;;;;;
2021/12/04 01:37:48;;;;;;;0.43;0.43;;;11.50;99.90;;;;;;4916317;28;41671;-80
2021/12/04 01:40:59;;;;;;;0.30;0.20;;;11.40;99.90;;;;;;4960987;28;20047;-80
2021/12/04 01:44:14;;;;;;;0.68;0.40;;;11.50;99.90;;;;;;4917878;28;20563;-80
2021/12/04 01:47:27;;;;;;;0.90;0.60;;;11.50;99.90;;;;;;4962628;28;20146;-81
2021/12/04 01:50:35;;;;;;;0.57;0.50;;;11.60;99.90;;;;;;4919943;28;20473;-80
2021/12/04 01:53:29;;;;;;;0.30;0.28;;;11.60;99.90;;;;;;4933343;28;20195;-84
2021/12/04 01:56:14;;;;;;;1.17;0.90;;;11.70;99.90;;;;;;4926523;28;20624;-83
2021/12/04 02:02:24;;;;;;;0.10;0.10;;;11.70;99.90;;;;;;4928413;28;20059;-83
2021/12/04 02:05:41;;;;;;;0.15;0.15;;;11.80;99.90;;;;;;4918394;28;20775;-83
2021/12/04 02:11:45;;;;;;;0.95;0.40;;;11.70;99.90;;;;;;4938515;28;20535;-83
2021/12/04 02:14:16;;;;;;;0.20;0.20;;;11.80;99.90;;;;;;4959020;28;20038;-83
2021/12/04 02:17:12;;;;;;;0.47;0.28;;;11.70;99.90;;;;;;4956970;28;20081;-83
2021/12/04 02:20:07;;;;;;;0.28;0.22;;;11.70;99.90;;;;;;4930174;28;20060;-82
2021/12/04 02:37:34;;;;;;;1.25;0.40;;;11.80;99.90;;;;;;4935739;28;20074;-83
2021/12/04 02:40:47;;;;;;;0.20;0.20;;;11.90;99.90;;;;;;4922387;28;20905;-83
2021/12/04 02:43:16;;;;;;;0.28;0.28;;;11.80;99.90;;;;;;4910679;28;20617;-83
2021/12/04 02:46:09;;;;;;;1.55;0.20;;;11.80;99.90;;;;;;4913965;28;21130;-82
2021/12/04 02:49:14;;;;;;;0.30;0.20;;;11.90;99.90;;;;;;4942246;28;20056;-83
2021/12/04 02:55:55;;;;;;;0.35;0.35;;;11.90;99.90;;;;;;4928177;28;20135;-79
2021/12/04 03:02:44;;;;;;;0.10;0.10;;;11.80;99.90;;;;;;4934347;28;20066;-79
2021/12/04 03:05:48;;;;;;;;;;;;;;;;;;;;;
2021/12/04 03:08:23;;;;;;;3.75;0.47;;;11.90;99.90;;;;;;4826858;28;40274;-79
2021/12/04 03:14:59;;;;;;;0.55;0.30;;;11.80;99.90;;;;;;4851712;28;20051;-79
2021/12/04 03:17:33;;;;;;;0.20;0.20;;;11.90;99.90;;;;;;4824660;28;20066;-79
2021/12/04 03:23:58;;;;;;;0.20;0.20;;;11.80;99.90;;;;;;4820796;29;20178;-79
2021/12/04 03:27:35;;;;;;;0.20;0.20;;;11.80;99.90;;;;;;4878483;28;20252;-79
2021/12/04 03:46:59;;;;;;;0.43;0.20;;;11.80;99.90;;;;;;4921489;28;20070;-79
2021/12/04 03:49:58;;;;;;;0.22;0.22;;;11.40;99.90;;;;;;4927508;28;20171;-79
2021/12/04 03:53:15;;;;;;;0.13;0.13;;;11.80;99.90;;;;;;4923740;28;20214;-79
2021/12/04 03:56:35;;;;;;;0.22;0.20;;;11.70;99.90;;;;;;4929777;28;20522;-79
2021/12/04 03:59:59;;;;;;;;;;;;;;;;;;;;;
2021/12/04 04:03:05;;;;;;;0.20;0.20;;;11.80;99.90;;;;;;4932303;28;40779;-79
2021/12/04 04:13:11;;;;;;;0.10;0.10;;;11.80;99.90;;;;;;4935044;28;20077;-79
2021/12/04 04:19:54;;;;;;;0.20;0.20;;;11.70;99.90;;;;;;4927250;28;20050;-79
2021/12/04 04:26:23;;;;;;;;;;;;;;;;;;;;;
2021/12/04 04:29:28;;;;;;;;;;;;;;;;;;;;;
2021/12/04 04:36:22;;;;;;;0.30;0.30;;;11.70;99.90;;;;;;4904435;28;20132;-82
2021/12/04 05:20:13;;;;;;;0.40;0.30;;;11.80;99.90;;;;;;4926524;28;20093;-83
2021/12/04 05:23:40;;;;;;;;;;;;;;;;;;;;;
2021/12/04 05:33:31;;;;;;;0.32;0.32;;;11.80;99.90;;;;;;4894479;28;20123;-83
2021/12/04 05:36:27;;;;;;;;;;;;;;;;;;;;;
2021/12/04 05:47:19;;;;;;;;;;;;;;;;;;;;;
2021/12/04 05:57:10;;;;;;;0.40;0.20;;;11.70;99.90;;;;;;5014930;28;20535;-83
2021/12/04 06:00:23;;;;;;;;;;;;;;;;;;;;;
2021/12/04 06:03:34;;;;;;;0.82;0.50;;;11.80;99.90;;;;;;4934950;28;40509;-82
2021/12/04 06:06:57;;;;;;;0.13;0.13;;;11.90;99.90;;;;;;4952263;28;20055;-83
2021/12/04 06:23:02;;;;;;;;;;;;;;;;;;;;;
2021/12/04 06:26:00;;;;;;;0.52;0.32;;;12.00;99.90;;;;;;4980842;28;43107;-83
2021/12/04 06:29:29;;;;;;;;;;;;;;;;;;;;;
2021/12/04 06:36:41;;;;;;;0.57;0.40;;;11.90;99.90;;;;;;4954473;28;20085;-82
2021/12/04 06:46:45;;;;;;;0.57;0.52;;;11.70;99.90;;;;;;4950789;28;20114;-83
2021/12/04 06:50:17;;;;;;;;;;;;;;;;;;;;;
2021/12/04 06:56:44;;;;;;;;;;;;;;;;;;;;;
2021/12/04 06:59:14;;;;;;;1.80;0.73;;;11.60;99.90;;;;;;4888170;29;42623;-81
2021/12/04 07:01:52;;;;;;;1.38;0.50;;;11.80;99.90;;;;;;4913512;28;20135;-85
2021/12/04 07:19:01;;;;;;;;;;;;;;;;;;;;;
2021/12/04 07:22:14;;;;;;;;;;;;;;;;;;;;;
2021/12/04 07:25:32;;;;;;;1.50;0.93;;;11.80;99.90;;;;;;4923111;28;45434;-85
2021/12/04 07:28:44;;;;;;;3.05;1.25;;;11.50;99.90;;;;;;4922242;28;20138;-85
2021/12/04 07:32:11;;;;;;;0.95;0.63;;;11.60;99.90;;;;;;4947950;28;20541;-84
2021/12/04 07:51:08;;;;;;;0.47;0.47;;;11.50;99.90;;;;;;4877572;28;20057;-84
2021/12/04 07:54:01;;;;;;;0.98;0.30;;;11.40;99.90;;;;;;4906657;28;20065;-85
2021/12/04 07:59:42;;;;;;;0.10;0.10;;;11.20;99.90;;;;;;4802507;29;20050;-83
2021/12/04 08:05:33;;;;;;;1.00;0.40;;;11.20;99.90;;;;;;4800794;29;20056;-86
2021/12/04 08:08:11;;;;;;;0.43;0.28;;;11.10;99.90;;;;;;4796906;29;20051;-85
2021/12/04 08:10:45;;;;;;;0.40;0.40;;;11.10;99.90;;;;;;4825883;29;20058;-86
2021/12/04 08:13:17;;;;;;;0.38;0.20;;;11.10;99.90;;;;;;4804839;29;20054;-86
2021/12/04 08:16:11;;;;;;;0.20;0.20;;;11.00;99.90;;;;;;4822195;29;20059;-83
2021/12/04 08:18:46;;;;;;;2.92;2.72;;;11.00;99.90;;;;;;4900167;28;20050;-85
2021/12/04 08:21:41;;;;;;;0.98;0.40;;;11.10;99.90;;;;;;4898861;28;20048;-82
2021/12/04 08:24:27;;;;;;;1.80;0.47;;;10.90;99.90;;;;;;4906678;28;20560;-83
2021/12/04 08:27:09;;;;;;;;;;;;;;;;;;;;;
2021/12/04 08:29:44;;;;;;;1.08;0.30;;;11.00;99.90;;;;;;4917631;28;42108;-84
2021/12/04 08:32:22;;;;;;;1.13;0.63;;;10.90;99.90;;;;;;4927286;28;20051;-84
2021/12/04 08:34:49;;;;;;;2.08;0.52;;;11.00;99.90;;;;;;4925097;28;20059;-85
2021/12/04 08:37:15;;;;;;;1.25;0.43;;;10.90;99.90;;;;;;4931306;28;20052;-84
2021/12/04 08:39:41;;;;;;;1.10;0.68;;;10.90;99.90;;;;;;4936336;28;20058;-85
2021/12/04 08:42:13;;;;;;;0.57;0.40;;;11.00;99.90;;;;;;4975923;28;20556;-84
2021/12/04 08:44:49;;;;;;;0.20;0.20;;;10.90;99.90;;;;;;4932887;28;20048;-85
2021/12/04 08:47:21;;;;;;;6.07;0.88;;;11.10;99.90;;;;;;4929996;28;20116;-85
2021/12/04 08:50:16;;;;;;;0.70;0.30;;;11.40;99.90;;;;;;4925515;28;20049;-84
2021/12/04 08:52:52;;;;;;;0.28;0.28;;;11.30;99.90;;;;;;4917828;28;20118;-85
2021/12/04 08:55:35;;;;;;;0.32;0.30;;;10.70;99.90;;;;;;4932114;28;20056;-85
2021/12/04 08:58:17;;;;;;;0.80;0.60;;;11.40;99.90;;;;;;4932154;28;20171;-84
2021/12/04 09:01:11;;;;;;;0.90;0.25;;;11.30;99.90;;;;;;4934683;28;20044;-85
2021/12/04 09:03:47;;;;;;;0.68;0.28;;;11.30;99.90;;;;;;4909497;28;20055;-84
2021/12/04 09:06:18;;;;;;;0.38;0.30;;;11.30;99.90;;;;;;4936954;28;20072;-81
2021/12/04 09:08:49;;;;;;;2.22;1.10;;;11.30;99.90;;;;;;4928756;28;20115;-84
2021/12/04 09:11:43;;;;;;;0.75;0.60;;;11.30;99.90;;;;;;4940749;28;20052;-85
2021/12/04 09:17:27;;;;;;;0.57;0.50;;;11.20;99.90;;;;;;4919935;28;20040;-87
2021/12/04 10:11:38;;;;;;;1.42;0.75;;;11.60;99.90;;;;;;5007680;28;20066;-85
2021/12/04 10:38:06;;;;;;;3.75;1.08;;;11.50;99.90;;;;;;4956234;28;20111;-85
2021/12/04 10:44:44;;;;;;;0.80;0.55;;;11.10;99.90;;;;;;4928599;28;20056;-85
2021/12/04 10:54:26;;;;;;;0.47;0.32;;;10.80;99.90;;;;;;4988008;23;20063;-88
2021/12/04 10:57:25;;;;;;;0.52;0.43;;;9.80;99.90;;;;;;4943360;28;20904;-87
2021/12/04 11:02:47;;;;;;;1.65;0.90;;;9.30;99.90;;;;;;4954800;28;20978;-86
2021/12/04 11:06:08;;;;;;;0.80;0.43;;;9.30;99.90;;;;;;4973349;28;20043;-86
2021/12/04 11:43:30;;;;;;;2.22;1.05;;;9.80;99.90;;;;;;4938534;28;20058;-85
2021/12/04 11:48:33;;;;;;;2.17;1.25;;;9.90;99.90;;;;;;4955975;28;19933;-86
2021/12/04 11:50:59;;;;;;;5.85;1.45;;;9.90;99.90;;;;;;4958021;28;20040;-85
2021/12/04 11:53:26;;;;;;;6.13;1.10;;;9.80;99.90;;;;;;4954052;28;20071;-85
2021/12/04 11:55:53;;;;;;;1.42;1.05;;;9.90;99.90;;;;;;4943093;28;20524;-86
2021/12/04 11:58:28;;;;;;;9.23;1.20;;;9.90;99.90;;;;;;4939269;28;20055;-86
2021/12/04 12:01:00;;;;;;;4.47;1.58;;;9.90;99.90;;;;;;4969509;28;20690;-85
2021/12/04 12:03:30;;;;;;;9.05;1.67;;;9.90;99.90;;;;;;4938701;28;20048;-86
2021/12/04 12:06:03;;;;;;;2.40;0.93;;;10.00;99.90;;;;;;4940788;28;20941;-85
2021/12/04 12:08:38;;;;;;;4.38;1.67;;;10.10;99.90;;;;;;4937767;28;20064;-85
2021/12/04 12:11:10;;;;;;;1.73;0.80;;;10.20;99.90;;;;;;4952512;28;20037;-86
2021/12/04 12:13:41;;;;;;;1.95;0.80;;;10.20;99.90;;;;;;4952067;28;20157;-85
2021/12/04 12:16:14;;;;;;;2.53;1.90;;;10.20;99.90;;;;;;4936433;28;20056;-85
2021/12/04 12:19:14;;;;;;;1.35;0.90;;;10.10;99.90;;;;;;4936957;28;20388;-86
2021/12/04 12:21:58;;;;;;;5.63;0.95;;;10.10;99.90;;;;;;4947926;28;20044;-84
2021/12/04 12:27:26;;;;;;;1.92;0.88;;;9.80;99.90;;;;;;4936182;28;20505;-85
2021/12/04 12:36:03;;;;;;;0.22;0.22;;;8.40;99.90;;;;;;4940803;28;20056;-87
2021/12/04 12:38:55;;;;;;;0.30;0.30;;;7.90;99.90;;;;;;4956741;28;20047;-86
2021/12/04 12:41:50;;;;;;;0.40;0.22;;;7.70;99.90;;;;;;4955386;28;20275;-86
2021/12/04 12:44:25;;;;;;;1.00;0.43;;;7.60;99.90;;;;;;4961338;28;20393;-85
2021/12/04 12:46:54;;;;;;;0.70;0.70;;;7.70;99.90;;;;;;4946405;28;20554;-85
2021/12/04 12:49:35;;;;;;;3.13;0.80;;;7.90;99.90;;;;;;4934562;28;20048;-86
2021/12/04 12:52:26;;;;;;;2.53;0.90;;;8.00;99.90;;;;;;4949082;28;20079;-89
2021/12/04 12:55:02;;;;;;;1.27;1.02;;;8.10;99.90;;;;;;4969251;28;20063;-88
2021/12/04 12:57:34;;;;;;;3.33;1.33;;;8.10;99.90;;;;;;4964199;28;20078;-87
2021/12/04 13:14:15;;;;;;;;;;;8.70;99.90;;;;;;4946020;28;20714;-87
2021/12/04 13:17:09;;;;;;;5.30;1.48;;;8.80;99.90;;;;;;4945969;28;20664;-90
2021/12/04 13:19:39;;;;;;;0.75;0.75;;;8.80;99.90;;;;;;4963949;28;20056;-88
2021/12/04 13:22:13;;;;;;;9.85;2.83;;;9.20;99.90;;;;;;4966628;28;20055;-88
2021/12/04 13:24:41;;;;;;;7.15;1.55;;;8.90;99.90;;;;;;5019487;28;20051;-88
2021/12/04 13:29:43;;;;;;;2.95;1.60;;;8.90;99.90;;;;;;4974134;28;20833;-88
2021/12/04 13:32:12;;;;;;;2.05;1.40;;;8.90;99.90;;;;;;4946979;28;20054;-89
2021/12/04 13:34:40;;;;;;;3.15;1.00;;;8.90;99.90;;;;;;4958913;28;20055;-88
2021/12/04 13:37:07;;;;;;;5.53;1.35;;;8.90;99.90;;;;;;4935050;28;20171;-89
2021/12/04 13:39:35;;;;;;;3.55;1.52;;;9.00;99.90;;;;;;4967160;28;20045;-88
2021/12/04 13:42:04;;;;;;;4.82;1.20;;;9.00;99.90;;;;;;4962497;28;20053;-88
2021/12/04 13:44:31;;;;;;;3.22;1.60;;;9.00;99.90;;;;;;4953090;28;20079;-88
2021/12/04 13:47:12;;;;;;;6.18;2.13;;;8.90;99.90;;;;;;4939543;28;20062;-89
2021/12/04 13:49:54;;;;;;;3.20;1.67;;;9.00;99.90;;;;;;4961088;28;20045;-88
2021/12/04 13:52:21;;;;;;;4.75;2.17;;;9.10;99.90;;;;;;4980892;28;20115;-89
2021/12/04 13:54:57;;;;;;;7.20;2.17;;;9.20;99.90;;;;;;4937813;28;20079;-89
2021/12/04 13:57:24;;;;;;;4.22;1.58;;;9.30;99.90;;;;;;4945174;28;20050;-89
2021/12/04 13:59:59;;;;;;;6.10;2.65;;;9.30;99.90;;;;;;4964563;28;20083;-89
2021/12/04 14:02:31;;;;;;;6.70;1.77;;;9.30;99.90;;;;;;4983185;28;20065;-89
2021/12/04 14:04:59;;;;;;;5.75;1.30;;;9.30;99.90;;;;;;4979224;28;20387;-89
2021/12/04 14:07:25;;;;;;;3.67;1.20;;;9.20;99.90;;;;;;4944119;28;20051;-88
2021/12/04 14:09:51;;;;;;;6.95;1.75;;;9.20;99.90;;;;;;4966671;28;20044;-89
2021/12/04 14:12:17;;;;;;;5.63;1.50;;;9.20;99.90;;;;;;4961699;28;20053;-89
2021/12/04 14:14:43;;;;;;;8.73;2.38;;;9.10;99.90;;;;;;4960234;28;20138;-88
2021/12/04 14:17:13;;;;;;;4.03;1.90;;;9.00;99.90;;;;;;4954918;28;20103;-85
2021/12/04 14:19:41;;;;;;;4.35;2.28;;;8.90;99.90;;;;;;4968150;28;20110;-90
2021/12/04 14:22:14;;;;;;;5.05;2.33;;;8.90;99.90;;;;;;4950302;28;20076;-84
2021/12/04 14:24:52;;;;;;;4.82;1.80;;;8.90;99.90;;;;;;4974930;28;20079;-89
2021/12/04 14:27:27;;;;;;;9.23;2.60;;;8.90;99.90;;;;;;4956795;28;20097;-88
2021/12/04 14:29:56;;;;;;;6.22;2.08;;;8.90;99.90;;;;;;4934582;28;20048;-87
2021/12/04 14:32:32;;;;;;;3.55;1.80;;;8.90;99.90;;;;;;4959035;28;20478;-89
2021/12/04 14:35:08;;;;;;;5.00;1.80;;;8.90;99.90;;;;;;4963213;28;20134;-89
2021/12/04 14:37:40;;;;;;;4.43;1.92;;;8.90;99.90;;;;;;4944158;28;20039;-88
2021/12/04 14:40:16;;;;;;;5.78;1.50;;;8.90;99.90;;;;;;5028372;28;20516;-91
2021/12/04 14:42:43;;;;;;;9.15;1.85;;;9.00;99.90;;;;;;4949918;28;20122;-89
2021/12/04 14:45:31;;;;;;;7.00;1.73;;;9.00;99.90;;;;;;4966011;28;20125;-90
2021/12/04 14:48:09;;;;;;;3.30;1.15;;;9.00;99.90;;;;;;4973344;28;20047;-90
2021/12/04 14:50:39;;;;;;;4.82;1.42;;;9.00;99.90;;;;;;4962300;28;20909;-91
2021/12/04 14:53:09;;;;;;;5.07;1.30;;;8.90;99.90;;;;;;4965149;28;20059;-89
2021/12/04 14:55:40;;;;;;;4.05;2.00;;;8.90;99.90;;;;;;4955326;28;20044;-89
2021/12/04 14:58:11;;;;;;;4.78;2.00;;;8.80;99.90;;;;;;4976088;28;20067;-90
2021/12/04 15:00:47;;;;;;;4.68;2.03;;;8.70;99.90;;;;;;4966638;28;20055;-89
2021/12/04 15:03:17;;;;;;;6.50;2.58;;;8.70;99.90;;;;;;4944921;28;20095;-89
2021/12/04 15:05:48;;;;;;;4.75;2.28;;;8.70;99.90;;;;;;4959798;28;20047;-90
2021/12/04 15:08:17;;;;;;;5.65;1.80;;;8.70;99.90;;;;;;4976893;28;20088;-91
2021/12/04 15:10:54;;;;;;;6.60;2.50;;;8.80;99.90;;;;;;4970632;28;20050;-90
2021/12/04 15:13:23;;;;;;;2.70;1.70;;;8.80;99.90;;;;;;4954903;28;20138;-91
2021/12/04 15:15:53;;;;;;;7.00;1.80;;;8.80;99.90;;;;;;4954986;28;20091;-90
2021/12/04 15:18:23;;;;;;;2.10;1.30;;;8.90;99.90;;;;;;4963735;28;20041;-88
2021/12/04 15:20:59;;;;;;;3.85;1.58;;;8.90;99.90;;;;;;4975770;28;20624;-90
2021/12/04 15:23:29;;;;;;;2.97;2.00;;;8.80;99.90;;;;;;4970602;28;20102;-90
2021/12/04 15:25:58;;;;;;;5.15;1.80;;;8.70;99.90;;;;;;4941518;28;20048;-89
2021/12/04 15:28:26;;;;;;;4.63;1.90;;;8.70;99.90;;;;;;4966402;28;20034;-88
2021/12/04 15:30:55;;;;;;;3.22;1.70;;;8.60;99.90;;;;;;4980080;28;20370;-89
2021/12/04 15:33:26;;;;;;;7.13;3.25;;;8.50;99.90;;;;;;4960178;28;21616;-89
2021/12/04 15:35:52;;;;;;;10.98;2.70;;;8.50;99.90;;;;;;4976414;28;20060;-89
2021/12/04 15:38:35;;;;;;;5.28;2.65;;;8.40;99.90;;;;;;4942418;28;20048;-90
2021/12/04 15:55:02;;;;;;;3.20;1.30;;;8.20;99.90;;;;;;4947782;28;20072;-89
2021/12/04 15:57:29;;;;;;;2.28;1.42;;;8.10;99.90;;;;;;4961614;28;20532;-89
2021/12/04 15:59:58;;;;;;;3.38;2.38;;;8.10;99.90;;;;;;4965698;28;20283;-90
2021/12/04 16:02:32;;;;;;;3.30;1.30;;;7.90;99.90;;;;;;4937306;28;20035;-90
2021/12/04 16:05:31;;;;;;;4.50;1.17;;;7.80;99.90;;;;;;4974357;28;20053;-90
2021/12/04 16:08:13;;;;;;;2.85;1.42;;;7.80;99.90;;;;;;4943391;28;20048;-90
2021/12/04 16:10:42;;;;;;;5.07;1.98;;;7.70;99.90;;;;;;4954710;28;20047;-90
2021/12/04 16:13:09;;;;;;;1.52;1.08;;;7.60;99.90;;;;;;4956060;28;21003;-90
2021/12/04 16:15:35;;;;;;;5.53;1.38;;;7.50;99.90;;;;;;4961333;28;20683;-89
2021/12/04 16:18:02;;;;;;;6.63;2.00;;;7.40;99.90;;;;;;4965255;28;20191;-90
2021/12/04 16:20:30;;;;;;;5.35;2.17;;;7.40;99.90;;;;;;4955881;28;20135;-88
2021/12/04 16:22:58;;;;;;;6.85;2.33;;;7.30;99.90;;;;;;4937206;28;20031;-89
2021/12/04 16:25:35;;;;;;;1.08;0.90;;;7.30;99.90;;;;;;4937601;28;20054;-89
2021/12/04 16:33:27;;;;;;;2.22;1.02;;;7.10;99.90;;;;;;4937785;28;20114;-89
2021/12/04 16:35:56;;;;;;;3.00;1.60;;;7.10;99.90;;;;;;4949417;28;20131;-88
2021/12/04 16:38:24;;;;;;;7.07;1.95;;;7.10;99.90;;;;;;4969983;28;20585;-89
2021/12/04 16:40:52;;;;;;;3.53;1.20;;;7.10;99.90;;;;;;4952016;28;20040;-89
2021/12/04 16:43:31;;;;;;;2.08;1.52;;;7.40;99.90;;;;;;4959607;28;20055;-89
2021/12/04 16:45:59;;;;;;;3.63;1.48;;;7.20;99.90;;;;;;4957999;28;20031;-89
2021/12/04 16:48:29;;;;;;;5.43;1.15;;;7.10;99.90;;;;;;4970855;28;20612;-88
2021/12/04 16:58:49;;;;;;;0.57;0.40;;;7.20;99.90;;;;;;4954124;28;20048;-92
2021/12/04 17:01:15;;;;;;;1.10;0.73;;;7.20;99.90;;;;;;4972859;28;20082;-92
2021/12/04 17:03:42;;;;;;;10.05;1.73;;;7.20;99.90;;;;;;4965461;28;20047;-92
2021/12/04 17:06:08;;;;;;;2.35;1.23;;;7.10;99.90;;;;;;4955532;28;20062;-92
2021/12/04 17:08:35;;;;;;;2.08;1.20;;;7.10;99.90;;;;;;5023720;28;20058;-92
2021/12/04 17:11:01;;;;;;;2.70;1.35;;;7.10;99.90;;;;;;4978928;28;20602;-91
2021/12/04 17:13:27;;;;;;;1.98;0.95;;;7.10;99.90;;;;;;4960670;28;20043;-90
2021/12/04 17:15:54;;;;;;;1.13;1.00;;;7.10;99.90;;;;;;4947123;28;20135;-90
2021/12/04 17:18:24;;;;;;;2.30;1.52;;;7.20;99.90;;;;;;4942068;28;20055;-90
2021/12/04 17:20:51;;;;;;;2.90;1.10;;;7.20;99.90;;;;;;4962956;28;20035;-90
2021/12/04 17:23:17;;;;;;;3.40;1.80;;;7.20;99.90;;;;;;4959975;28;20115;-91
2021/12/04 17:25:43;;;;;;;1.67;1.48;;;7.20;99.90;;;;;;4937471;28;20130;-91
2021/12/04 17:28:12;;;;;;;2.60;1.67;;;7.50;99.90;;;;;;4954742;28;20055;-92
2021/12/04 17:30:39;;;;;;;3.85;1.35;;;7.00;99.90;;;;;;4951350;28;20040;-91
2021/12/04 17:33:06;;;;;;;3.25;1.65;;;6.90;99.90;;;;;;4974628;28;20095;-91
2021/12/04 17:35:36;;;;;;;1.13;1.02;;;6.90;99.90;;;;;;4970055;28;20040;-93
2021/12/04 17:38:03;;;;;;;4.93;1.48;;;6.90;99.90;;;;;;4953623;28;20044;-90
2021/12/04 17:40:33;;;;;;;3.75;1.30;;;6.90;99.90;;;;;;4945928;28;20477;-88
2021/12/04 17:42:59;;;;;;;2.55;1.48;;;6.80;99.90;;;;;;4964957;28;20098;-87
2021/12/04 17:45:25;;;;;;;3.45;1.80;;;6.80;99.90;;;;;;4972898;28;20039;-87
2021/12/04 17:47:51;;;;;;;5.00;1.83;;;6.80;99.90;;;;;;4940896;28;20039;-87
2021/12/04 17:50:27;;;;;;;1.55;0.95;;;6.80;99.90;;;;;;4959199;28;20040;-87
2021/12/04 17:52:58;;;;;;;2.88;1.20;;;6.70;99.90;;;;;;4943652;28;20437;-87
2021/12/04 17:55:26;;;;;;;4.82;1.67;;;6.80;99.90;;;;;;4965964;28;21084;-86
2021/12/04 17:57:53;;;;;;;2.90;2.22;;;6.80;99.90;;;;;;4951244;28;20083;-87
2021/12/04 18:00:27;;;;;;;3.55;1.17;;;6.70;99.90;;;;;;4940700;28;20048;-87
2021/12/04 18:02:53;;;;;;;2.53;1.23;;;6.80;99.90;;;;;;4952699;28;20051;-87
2021/12/04 18:05:24;;;;;;;5.93;1.58;;;6.70;99.90;;;;;;4940387;28;20047;-87
2021/12/04 18:07:51;;;;;;;2.28;1.15;;;6.70;99.90;;;;;;4982791;28;20042;-87
2021/12/04 18:10:17;;;;;;;2.30;1.60;;;6.70;99.90;;;;;;4965182;28;20090;-87
2021/12/04 18:12:47;;;;;;;2.42;1.58;;;6.70;99.90;;;;;;4964390;28;20046;-87
2021/12/04 18:15:18;;;;;;;6.55;1.60;;;6.70;99.90;;;;;;4937570;28;20524;-89
2021/12/04 18:17:44;;;;;;;1.48;1.35;;;6.70;99.90;;;;;;4959116;28;20552;-88
2021/12/04 18:20:10;;;;;;;3.17;1.35;;;6.60;99.90;;;;;;4957237;28;20603;-87
2021/12/04 18:22:36;;;;;;;4.80;1.75;;;6.60;99.90;;;;;;4941061;28;20115;-87
2021/12/04 18:25:02;;;;;;;2.25;1.45;;;6.50;99.90;;;;;;4956092;28;20095;-87
2021/12/04 18:27:31;;;;;;;2.70;0.98;;;6.50;99.90;;;;;;4956542;28;20130;-86
2021/12/04 18:29:57;;;;;;;5.68;1.05;;;6.50;99.90;;;;;;4955418;28;20040;-87
2021/12/04 18:32:23;;;;;;;2.03;1.10;;;6.40;99.90;;;;;;4963809;28;21071;-87
2021/12/04 18:34:49;;;;;;;4.05;0.80;;;6.50;99.90;;;;;;4957841;28;20531;-87
2021/12/04 18:37:14;;;;;;;1.77;0.90;;;6.50;99.90;;;;;;4957658;28;20044;-86
2021/12/04 18:39:40;;;;;;;2.88;1.75;;;6.50;99.90;;;;;;4963848;28;20044;-87
2021/12/04 18:42:06;;;;;;;3.08;1.48;;;6.50;99.90;;;;;;4952284;28;20044;-86
2021/12/04 18:44:32;;;;;;;5.97;2.53;;;6.40;99.90;;;;;;4942238;28;20044;-85
2021/12/04 18:46:58;;;;;;;2.05;1.63;;;6.50;99.90;;;;;;4964385;28;20185;-87
2021/12/04 18:49:25;;;;;;;4.05;1.85;;;6.50;99.90;;;;;;4942908;28;20138;-89
2021/12/04 18:51:52;;;;;;;1.02;0.93;;;6.50;99.90;;;;;;4964591;28;20588;-87
2021/12/04 18:54:18;;;;;;;2.10;0.73;;;6.50;99.90;;;;;;4942334;28;20063;-87
2021/12/04 18:56:44;;;;;;;2.03;1.38;;;6.50;99.90;;;;;;4941319;28;20408;-87
2021/12/04 18:59:10;;;;;;;1.13;0.60;;;6.50;99.90;;;;;;4953821;28;20110;-87
2021/12/04 19:01:37;;;;;;;2.47;1.63;;;6.50;99.90;;;;;;4970120;28;20644;-87
2021/12/04 19:04:04;;;;;;;1.10;1.00;;;6.50;99.90;;;;;;4954771;28;20040;-86
2021/12/04 19:06:31;;;;;;;2.22;0.70;;;6.50;99.90;;;;;;4952452;28;20051;-87
2021/12/04 19:08:58;;;;;;;3.22;0.90;;;6.40;99.90;;;;;;4957587;28;20051;-87
2021/12/04 19:11:27;;;;;;;8.30;1.30;;;6.50;99.90;;;;;;4952760;28;20048;-87
2021/12/04 19:13:54;;;;;;;1.80;0.85;;;6.40;99.90;;;;;;4970334;28;20320;-87
2021/12/04 19:16:21;;;;;;;1.45;0.88;;;6.40;99.90;;;;;;4955540;28;20058;-87
2021/12/04 19:18:46;;;;;;;1.00;0.70;;;6.40;99.90;;;;;;4957947;28;20542;-87
2021/12/04 19:21:12;;;;;;;2.28;1.40;;;6.30;99.90;;;;;;4938126;28;20097;-87
2021/12/04 19:23:39;;;;;;;1.38;1.10;;;6.30;99.90;;;;;;4948610;28;20096;-86
2021/12/04 19:26:08;;;;;;;0.40;0.40;;;6.30;99.90;;;;;;4965745;28;20052;-87
2021/12/04 19:28:34;;;;;;;1.95;0.77;;;6.30;99.90;;;;;;4953676;28;20963;-87
2021/12/04 19:31:39;;;;;;;1.25;0.77;;;6.30;99.90;;;;;;4941870;28;20044;-88
2021/12/04 19:34:18;;;;;;;;;;;6.30;99.90;;;;;;4942589;28;20052;-87
2021/12/04 19:48:19;;;;;;;1.27;0.95;;;6.30;99.90;;;;;;4989480;28;19934;-87
2021/12/04 19:48:36;;;;;;;2.20;1.10;;;6.20;99.90;;;;;;4942995;28;20048;-85
2021/12/04 19:51:03;;;;;;;3.83;2.05;;;6.20;99.90;;;;;;4931123;28;20048;-86
2021/12/04 19:54:01;;;;;;;1.48;0.93;;;6.20;99.90;;;;;;4950052;28;20060;-86
2021/12/04 19:57:05;;;;;;;3.22;1.10;;;6.40;99.90;;;;;;4939779;28;20592;-85
2021/12/04 19:59:24;;;;;;;2.25;1.90;;;6.40;99.90;;;;;;4943029;28;20087;-85
2021/12/04 20:13:56;;;;;;;0.77;0.63;;;6.30;99.90;;;;;;4936323;28;20582;-85
2021/12/04 20:15:50;;;;;;;1.02;0.65;;;6.20;99.90;;;;;;4933244;28;20129;-86
2021/12/04 20:18:16;;;;;;;1.67;0.98;;;6.20;99.90;;;;;;4930206;28;20119;-86
2021/12/04 20:20:51;;;;;;;1.63;0.90;;;6.30;99.90;;;;;;4953255;28;20048;-85
2021/12/04 20:23:22;;;;;;;1.08;0.55;;;6.30;99.90;;;;;;4948531;28;20568;-85
2021/12/04 20:25:56;;;;;;;2.25;0.68;;;6.30;99.90;;;;;;4932108;28;20045;-85
2021/12/04 20:28:32;;;;;;;0.70;0.60;;;6.30;99.90;;;;;;4934669;28;20047;-85
2021/12/04 20:31:04;;;;;;;3.53;1.30;;;6.60;99.90;;;;;;4963379;28;20072;-86
2021/12/04 20:33:53;;;;;;;2.30;1.23;;;6.30;99.90;;;;;;4941335;28;20078;-86
2021/12/04 20:53:11;;;;;;;0.95;0.70;;;6.40;99.90;;;;;;4940501;28;20054;-87
2021/12/04 21:52:04;;;;;;;1.30;0.70;;;6.10;99.90;;;;;;4933549;28;20083;-86
2021/12/04 21:54:31;;;;;;;1.08;0.77;;;6.10;99.90;;;;;;4904635;28;1364320;-85
2021/12/04 22:10:45;;;;;;;0.63;0.60;;;6.00;99.90;;;;;;4943883;28;20125;-85
2021/12/04 22:13:22;;;;;;;0.47;0.40;;;6.20;99.90;;;;;;4950068;28;20055;-84
2021/12/04 22:24:15;;;;;;;1.48;0.60;;;6.10;99.90;;;;;;4937025;28;20507;-84
2021/12/04 22:59:18;;;;;;;1.27;0.65;;;5.90;99.90;;;;;;4957465;28;20048;-86
2021/12/04 23:01:53;;;;;;;0.98;0.60;;;5.90;99.90;;;;;;4939724;28;20047;-85
2021/12/04 23:13:06;;;;;;;2.53;0.90;;;6.00;99.90;;;;;;4941699;28;20048;-85
2021/12/04 23:15:49;;;;;;;0.50;0.50;;;6.00;99.90;;;;;;4944173;28;20051;-86
2021/12/04 23:34:32;;;;;;;1.95;0.60;;;6.10;99.90;;;;;;4940086;28;20064;-84
2021/12/04 23:37:29;;;;;;;1.15;0.60;;;6.10;99.90;;;;;;4940754;28;20035;-84
